sensor_id;sensor_type;location;lat;lon;timestamp;pressure;altitude;pressure_sealevel;temperature;humidity
2178;BME280;1095;50.992;6.798;2023-03-23T00:01:27;99757.69;;;12.28;91.37
2178;BME280;1095;50.992;6.798;2023-03-23T00:03:56;99752.69;;;12.34;91.10
2178;BME280;1095;50.992;6.798;2023-03-23T00:06:25;99731.66;;;12.27;91.23
2178;BME280;1095;50.992;6.798;2023-03-23T00:08:54;99745.38;;;12.29;91.07
2178;BME280;1095;50.992;6.798;2023-03-23T00:11:26;99751.66;;;12.28;91.22
2178;BME280;1095;50.992;6.798;2023-03-23T00:13:55;99739.34;;;12.28;91.24
2178;BME280;1095;50.992;6.798;2023-03-23T00:16:25;99742.75;;;12.29;91.14
2178;BME280;1095;50.992;6.798;2023-03-23T00:18:57;99744.78;;;12.27;91.13
2178;BME280;1095;50.992;6.798;2023-03-23T00:21:25;99746.81;;;12.32;91.15
2178;BME280;1095;50.992;6.798;2023-03-23T00:23:59;99751.25;;;12.31;91.27
2178;BME280;1095;50.992;6.798;2023-03-23T00:26:26;99759.69;;;12.26;91.21
2178;BME280;1095;50.992;6.798;2023-03-23T00:28:53;99725.91;;;12.17;91.07
2178;BME280;1095;50.992;6.798;2023-03-23T00:31:20;99740.72;;;12.24;91.05
2178;BME280;1095;50.992;6.798;2023-03-23T00:33:48;99724.97;;;12.24;91.07
2178;BME280;1095;50.992;6.798;2023-03-23T00:36:15;99738.09;;;12.24;91.06
2178;BME280;1095;50.992;6.798;2023-03-23T00:38:43;99749.22;;;12.26;91.14
2178;BME280;1095;50.992;6.798;2023-03-23T00:41:09;99741.09;;;12.21;91.47
2178;BME280;1095;50.992;6.798;2023-03-23T00:43:38;99753.19;;;12.22;91.14
2178;BME280;1095;50.992;6.798;2023-03-23T00:46:05;99738.91;;;12.25;91.13
2178;BME280;1095;50.992;6.798;2023-03-23T00:48:35;99735.47;;;12.24;91.05
2178;BME280;1095;50.992;6.798;2023-03-23T00:51:07;99716.09;;;12.25;91.28
2178;BME280;1095;50.992;6.798;2023-03-23T00:53:37;99722.34;;;12.24;91.24
2178;BME280;1095;50.992;6.798;2023-03-23T00:56:04;99727.59;;;12.24;91.14
2178;BME280;1095;50.992;6.798;2023-03-23T00:58:31;99743.09;;;12.19;91.56
2178;BME280;1095;50.992;6.798;2023-03-23T01:00:58;99746.72;;;12.18;91.60
2178;BME280;1095;50.992;6.798;2023-03-23T01:03:27;99714.34;;;12.11;91.86
2178;BME280;1095;50.992;6.798;2023-03-23T01:05:55;99705.13;;;12.15;91.39
2178;BME280;1095;50.992;6.798;2023-03-23T01:08:24;99706.13;;;12.14;91.30
2178;BME280;1095;50.992;6.798;2023-03-23T01:10:51;99720.16;;;12.28;91.37
2178;BME280;1095;50.992;6.798;2023-03-23T01:13:19;99716.72;;;12.27;91.17
2178;BME280;1095;50.992;6.798;2023-03-23T01:15:47;99723.34;;;12.23;91.19
2178;BME280;1095;50.992;6.798;2023-03-23T01:18:14;99722.34;;;12.24;91.10
2178;BME280;1095;50.992;6.798;2023-03-23T01:20:41;99720.72;;;12.23;91.20
2178;BME280;1095;50.992;6.798;2023-03-23T01:23:07;99718.09;;;12.23;91.51
2178;BME280;1095;50.992;6.798;2023-03-23T01:25:36;99717.09;;;12.24;91.81
2178;BME280;1095;50.992;6.798;2023-03-23T01:28:03;99717.84;;;12.18;92.11
2178;BME280;1095;50.992;6.798;2023-03-23T01:30:30;99718.09;;;12.23;91.80
2178;BME280;1095;50.992;6.798;2023-03-23T01:32:56;99716.03;;;12.19;92.17
2178;BME280;1095;50.992;6.798;2023-03-23T01:35:23;99723.59;;;12.07;92.74
2178;BME280;1095;50.992;6.798;2023-03-23T01:37:50;99709.44;;;12.02;93.85
2178;BME280;1095;50.992;6.798;2023-03-23T01:40:17;99716.72;;;12.06;94.49
2178;BME280;1095;50.992;6.798;2023-03-23T01:42:45;99711.59;;;11.98;95.93
2178;BME280;1095;50.992;6.798;2023-03-23T01:45:28;99707.72;;;11.94;97.58
2178;BME280;1095;50.992;6.798;2023-03-23T01:48:02;99720.09;;;11.79;98.75
2178;BME280;1095;50.992;6.798;2023-03-23T01:50:35;99706.81;;;11.80;98.98
2178;BME280;1095;50.992;6.798;2023-03-23T01:53:03;99704.66;;;11.69;100.00
2178;BME280;1095;50.992;6.798;2023-03-23T01:55:35;99684.34;;;11.56;100.00
2178;BME280;1095;50.992;6.798;2023-03-23T01:58:06;99711.81;;;11.60;100.00
2178;BME280;1095;50.992;6.798;2023-03-23T02:00:33;99696.25;;;11.59;100.00
2178;BME280;1095;50.992;6.798;2023-03-23T02:03:00;99706.13;;;11.57;100.00
2178;BME280;1095;50.992;6.798;2023-03-23T02:05:30;99699.97;;;11.64;100.00
2178;BME280;1095;50.992;6.798;2023-03-23T02:08:00;99670.69;;;11.61;100.00
2178;BME280;1095;50.992;6.798;2023-03-23T02:10:30;99675.13;;;11.60;100.00
2178;BME280;1095;50.992;6.798;2023-03-23T02:12:57;99669.19;;;11.52;100.00
2178;BME280;1095;50.992;6.798;2023-03-23T02:15:31;99677.13;;;11.58;100.00
2178;BME280;1095;50.992;6.798;2023-03-23T02:18:06;99671.44;;;11.55;100.00
2178;BME280;1095;50.992;6.798;2023-03-23T02:20:57;99650.47;;;11.55;100.00
2178;BME280;1095;50.992;6.798;2023-03-23T02:23:50;99638.09;;;11.49;100.00
2178;BME280;1095;50.992;6.798;2023-03-23T02:26:28;99639.47;;;11.45;100.00
2178;BME280;1095;50.992;6.798;2023-03-23T02:29:16;99621.69;;;11.40;100.00
2178;BME280;1095;50.992;6.798;2023-03-23T02:34:23;99612.97;;;11.33;100.00
2178;BME280;1095;50.992;6.798;2023-03-23T02:36:59;99603.34;;;11.19;100.00
2178;BME280;1095;50.992;6.798;2023-03-23T02:39:32;99636.75;;;11.32;100.00
2178;BME280;1095;50.992;6.798;2023-03-23T02:42:04;99614.56;;;11.13;100.00
2178;BME280;1095;50.992;6.798;2023-03-23T02:44:39;99609.84;;;11.23;100.00
2178;BME280;1095;50.992;6.798;2023-03-23T02:47:32;99611.03;;;11.20;100.00
2178;BME280;1095;50.992;6.798;2023-03-23T02:53:36;99626.38;;;11.23;100.00
2178;BME280;1095;50.992;6.798;2023-03-23T03:14:51;99647.06;;;11.40;98.37
2178;BME280;1095;50.992;6.798;2023-03-23T03:18:18;99621.41;;;11.28;98.11
2178;BME280;1095;50.992;6.798;2023-03-23T03:21:08;99625.28;;;11.18;98.49
2178;BME280;1095;50.992;6.798;2023-03-23T03:23:43;99623.50;;;11.18;98.50
2178;BME280;1095;50.992;6.798;2023-03-23T03:26:20;99651.19;;;11.27;98.53
2178;BME280;1095;50.992;6.798;2023-03-23T03:29:03;99633.78;;;11.20;98.75
2178;BME280;1095;50.992;6.798;2023-03-23T03:31:46;99648.13;;;11.24;98.40
2178;BME280;1095;50.992;6.798;2023-03-23T03:45:13;99680.09;;;11.34;98.53
2178;BME280;1095;50.992;6.798;2023-03-23T03:47:51;99665.03;;;11.21;98.38
2178;BME280;1095;50.992;6.798;2023-03-23T03:50:26;99679.19;;;11.27;98.65
2178;BME280;1095;50.992;6.798;2023-03-23T03:52:58;99668.78;;;11.34;98.67
2178;BME280;1095;50.992;6.798;2023-03-23T03:55:27;99653.38;;;11.24;98.68
2178;BME280;1095;50.992;6.798;2023-03-23T03:57:54;99661.84;;;11.26;98.45
2178;BME280;1095;50.992;6.798;2023-03-23T04:00:21;99669.34;;;11.29;98.29
2178;BME280;1095;50.992;6.798;2023-03-23T04:02:53;99660.31;;;11.32;98.27
2178;BME280;1095;50.992;6.798;2023-03-23T04:05:23;99666.72;;;11.29;98.12
2178;BME280;1095;50.992;6.798;2023-03-23T04:07:51;99654.25;;;11.31;98.44
2178;BME280;1095;50.992;6.798;2023-03-23T04:10:20;99652.28;;;11.33;98.17
2178;BME280;1095;50.992;6.798;2023-03-23T04:12:47;99657.25;;;11.28;98.26
2178;BME280;1095;50.992;6.798;2023-03-23T04:15:14;99649.75;;;11.25;98.26
2178;BME280;1095;50.992;6.798;2023-03-23T04:17:41;99650.84;;;11.16;98.41
2178;BME280;1095;50.992;6.798;2023-03-23T04:20:11;99649.22;;;11.15;98.33
2178;BME280;1095;50.992;6.798;2023-03-23T04:22:42;99639.66;;;11.07;98.47
2178;BME280;1095;50.992;6.798;2023-03-23T04:25:11;99658.16;;;11.20;98.61
2178;BME280;1095;50.992;6.798;2023-03-23T04:27:43;99651.75;;;11.23;98.21
2178;BME280;1095;50.992;6.798;2023-03-23T04:30:12;99670.59;;;11.33;97.98
2178;BME280;1095;50.992;6.798;2023-03-23T04:32:50;99663.75;;;11.32;97.92
2178;BME280;1095;50.992;6.798;2023-03-23T04:35:27;99661.84;;;11.26;98.09
2178;BME280;1095;50.992;6.798;2023-03-23T04:38:11;99654.09;;;11.18;98.14
2178;BME280;1095;50.992;6.798;2023-03-23T04:40:44;99655.09;;;11.17;98.01
2178;BME280;1095;50.992;6.798;2023-03-23T04:43:30;99673.59;;;11.30;98.19
2178;BME280;1095;50.992;6.798;2023-03-23T04:46:09;99668.97;;;11.32;98.11
2178;BME280;1095;50.992;6.798;2023-03-23T04:48:37;99653.84;;;11.13;98.50
2178;BME280;1095;50.992;6.798;2023-03-23T04:51:26;99686.91;;;11.35;98.24
2178;BME280;1095;50.992;6.798;2023-03-23T04:53:56;99680.28;;;11.33;98.16
2178;BME280;1095;50.992;6.798;2023-03-23T04:56:22;99676.84;;;11.32;97.73
2178;BME280;1095;50.992;6.798;2023-03-23T04:58:51;99683.75;;;11.40;97.17
2178;BME280;1095;50.992;6.798;2023-03-23T05:01:17;99689.53;;;11.35;97.26
2178;BME280;1095;50.992;6.798;2023-03-23T05:03:46;99701.44;;;11.38;97.21
2178;BME280;1095;50.992;6.798;2023-03-23T05:06:15;99697.84;;;11.39;97.46
2178;BME280;1095;50.992;6.798;2023-03-23T05:08:44;99682.94;;;11.39;97.00
2178;BME280;1095;50.992;6.798;2023-03-23T05:11:11;99692.06;;;11.43;96.86
2178;BME280;1095;50.992;6.798;2023-03-23T05:13:39;99692.06;;;11.43;96.69
2178;BME280;1095;50.992;6.798;2023-03-23T05:16:06;99689.97;;;11.39;96.27
2178;BME280;1095;50.992;6.798;2023-03-23T05:18:34;99692.59;;;11.39;96.63
2178;BME280;1095;50.992;6.798;2023-03-23T05:21:02;99702.97;;;11.47;96.16
2178;BME280;1095;50.992;6.798;2023-03-23T05:23:33;99696.13;;;11.46;96.13
2178;BME280;1095;50.992;6.798;2023-03-23T05:26:01;99694.03;;;11.41;96.03
2178;BME280;1095;50.992;6.798;2023-03-23T05:28:28;99695.84;;;11.41;95.81
2178;BME280;1095;50.992;6.798;2023-03-23T05:30:56;99705.16;;;11.43;95.73
2178;BME280;1095;50.992;6.798;2023-03-23T05:33:23;99703.06;;;11.39;96.01
2178;BME280;1095;50.992;6.798;2023-03-23T05:35:50;99708.75;;;11.42;95.68
2178;BME280;1095;50.992;6.798;2023-03-23T05:38:24;99702.91;;;11.40;95.54
2178;BME280;1095;50.992;6.798;2023-03-23T05:41:03;99700.63;;;11.37;95.28
2178;BME280;1095;50.992;6.798;2023-03-23T05:43:33;99687.31;;;11.32;95.23
2178;BME280;1095;50.992;6.798;2023-03-23T05:46:01;99703.53;;;11.42;95.00
2178;BME280;1095;50.992;6.798;2023-03-23T05:48:28;99701.03;;;11.34;94.99
2178;BME280;1095;50.992;6.798;2023-03-23T05:50:55;99699.00;;;11.36;94.71
2178;BME280;1095;50.992;6.798;2023-03-23T05:53:25;99703.44;;;11.36;94.69
2178;BME280;1095;50.992;6.798;2023-03-23T05:55:58;99711.38;;;11.42;93.61
2178;BME280;1095;50.992;6.798;2023-03-23T05:58:26;99696.47;;;11.43;92.56
2178;BME280;1095;50.992;6.798;2023-03-23T06:03:23;99722.03;;;11.41;92.92
2178;BME280;1095;50.992;6.798;2023-03-23T06:06:00;99722.84;;;11.41;92.27
2178;BME280;1095;50.992;6.798;2023-03-23T06:08:48;99715.38;;;11.38;91.28
2178;BME280;1095;50.992;6.798;2023-03-23T06:11:29;99728.72;;;11.43;90.93
2178;BME280;1095;50.992;6.798;2023-03-23T06:14:01;99708.84;;;11.49;90.07
2178;BME280;1095;50.992;6.798;2023-03-23T06:18:56;99736.06;;;11.84;88.84
2178;BME280;1095;50.992;6.798;2023-03-23T06:21:25;99732.25;;;11.86;88.62
2178;BME280;1095;50.992;6.798;2023-03-23T06:23:53;99746.06;;;11.95;88.25
2178;BME280;1095;50.992;6.798;2023-03-23T06:26:25;99743.50;;;12.02;87.37
2178;BME280;1095;50.992;6.798;2023-03-23T06:28:54;99737.72;;;12.06;86.97
2178;BME280;1095;50.992;6.798;2023-03-23T06:31:24;99710.53;;;11.92;87.10
2178;BME280;1095;50.992;6.798;2023-03-23T06:33:51;99726.78;;;12.03;86.92
2178;BME280;1095;50.992;6.798;2023-03-23T06:36:18;99730.34;;;11.95;86.78
2178;BME280;1095;50.992;6.798;2023-03-23T06:38:45;99740.22;;;12.14;86.92
2178;BME280;1095;50.992;6.798;2023-03-23T06:41:12;99743.72;;;12.21;86.55
2178;BME280;1095;50.992;6.798;2023-03-23T06:43:39;99748.59;;;12.24;86.34
2178;BME280;1095;50.992;6.798;2023-03-23T06:46:07;99744.78;;;12.27;85.93
2178;BME280;1095;50.992;6.798;2023-03-23T06:48:35;99742.97;;;12.27;86.11
2178;BME280;1095;50.992;6.798;2023-03-23T06:51:02;99756.06;;;12.27;86.23
2178;BME280;1095;50.992;6.798;2023-03-23T06:53:28;99756.66;;;12.29;86.57
2178;BME280;1095;50.992;6.798;2023-03-23T06:55:58;99754.72;;;12.38;86.02
2178;BME280;1095;50.992;6.798;2023-03-23T06:58:24;99753.66;;;12.33;85.91
2178;BME280;1095;50.992;6.798;2023-03-23T07:00:53;99762.16;;;12.35;85.84
2178;BME280;1095;50.992;6.798;2023-03-23T07:03:23;99759.88;;;12.25;86.47
2178;BME280;1095;50.992;6.798;2023-03-23T07:05:50;99749.59;;;12.23;86.27
2178;BME280;1095;50.992;6.798;2023-03-23T07:08:17;99758.88;;;12.26;86.79
2178;BME280;1095;50.992;6.798;2023-03-23T07:10:44;99763.34;;;12.32;86.55
2178;BME280;1095;50.992;6.798;2023-03-23T07:13:10;99760.16;;;12.37;86.10
2178;BME280;1095;50.992;6.798;2023-03-23T07:15:38;99764.66;;;12.43;86.28
2178;BME280;1095;50.992;6.798;2023-03-23T07:18:05;99761.78;;;12.38;85.79
2178;BME280;1095;50.992;6.798;2023-03-23T07:20:34;99760.03;;;12.45;85.69
2178;BME280;1095;50.992;6.798;2023-03-23T07:23:01;99765.22;;;12.59;85.42
2178;BME280;1095;50.992;6.798;2023-03-23T07:25:30;99741.03;;;12.64;85.47
2178;BME280;1095;50.992;6.798;2023-03-23T07:27:58;99739.25;;;12.71;84.64
2178;BME280;1095;50.992;6.798;2023-03-23T07:30:25;99732.00;;;12.73;84.55
2178;BME280;1095;50.992;6.798;2023-03-23T07:32:52;99737.47;;;12.78;84.05
2178;BME280;1095;50.992;6.798;2023-03-23T07:35:19;99744.38;;;12.86;83.57
2178;BME280;1095;50.992;6.798;2023-03-23T07:37:47;99730.84;;;12.82;83.45
2178;BME280;1095;50.992;6.798;2023-03-23T07:40:14;99743.00;;;12.90;83.33
2178;BME280;1095;50.992;6.798;2023-03-23T07:42:42;99745.81;;;12.88;83.30
2178;BME280;1095;50.992;6.798;2023-03-23T07:45:09;99726.47;;;12.96;82.50
2178;BME280;1095;50.992;6.798;2023-03-23T07:47:36;99730.94;;;12.95;82.37
2178;BME280;1095;50.992;6.798;2023-03-23T07:50:04;99738.69;;;13.10;82.43
2178;BME280;1095;50.992;6.798;2023-03-23T07:52:31;99732.63;;;13.10;82.48
2178;BME280;1095;50.992;6.798;2023-03-23T07:55:00;99732.06;;;13.14;82.01
2178;BME280;1095;50.992;6.798;2023-03-23T07:57:28;99735.31;;;13.16;81.60
2178;BME280;1095;50.992;6.798;2023-03-23T07:59:54;99720.81;;;13.20;81.54
2178;BME280;1095;50.992;6.798;2023-03-23T08:02:22;99735.13;;;13.24;81.50
2178;BME280;1095;50.992;6.798;2023-03-23T08:04:49;99736.13;;;13.23;80.46
2178;BME280;1095;50.992;6.798;2023-03-23T08:07:16;99724.81;;;13.16;80.06
2178;BME280;1095;50.992;6.798;2023-03-23T08:09:44;99730.94;;;13.30;79.98
2178;BME280;1095;50.992;6.798;2023-03-23T08:12:13;99731.34;;;13.34;79.91
2178;BME280;1095;50.992;6.798;2023-03-23T08:14:39;99738.06;;;13.43;79.84
2178;BME280;1095;50.992;6.798;2023-03-23T08:17:07;99730.22;;;13.49;79.32
2178;BME280;1095;50.992;6.798;2023-03-23T08:19:34;99722.09;;;13.44;79.07
2178;BME280;1095;50.992;6.798;2023-03-23T08:22:02;99739.75;;;13.57;78.80
2178;BME280;1095;50.992;6.798;2023-03-23T08:24:29;99731.44;;;13.53;78.32
2178;BME280;1095;50.992;6.798;2023-03-23T08:26:56;99732.25;;;13.54;78.26
2178;BME280;1095;50.992;6.798;2023-03-23T08:29:24;99723.78;;;13.58;78.03
2178;BME280;1095;50.992;6.798;2023-03-23T08:31:51;99722.59;;;13.68;77.38
2178;BME280;1095;50.992;6.798;2023-03-23T08:34:18;99730.28;;;13.69;76.97
2178;BME280;1095;50.992;6.798;2023-03-23T08:36:45;99726.66;;;13.83;77.17
2178;BME280;1095;50.992;6.798;2023-03-23T08:39:13;99731.50;;;13.80;76.48
2178;BME280;1095;50.992;6.798;2023-03-23T08:41:40;99735.97;;;13.86;76.50
2178;BME280;1095;50.992;6.798;2023-03-23T08:44:07;99738.44;;;14.01;76.57
2178;BME280;1095;50.992;6.798;2023-03-23T08:46:35;99752.41;;;14.01;76.57
2178;BME280;1095;50.992;6.798;2023-03-23T08:49:01;99745.72;;;14.05;75.86
2178;BME280;1095;50.992;6.798;2023-03-23T08:51:28;99745.53;;;14.26;75.49
2178;BME280;1095;50.992;6.798;2023-03-23T08:53:55;99764.78;;;14.34;74.91
2178;BME280;1095;50.992;6.798;2023-03-23T08:56:21;99762.34;;;14.25;74.96
2178;BME280;1095;50.992;6.798;2023-03-23T08:58:48;99764.78;;;14.34;75.10
2178;BME280;1095;50.992;6.798;2023-03-23T09:01:15;99777.31;;;14.32;75.77
2178;BME280;1095;50.992;6.798;2023-03-23T09:03:43;99765.56;;;14.27;75.83
2178;BME280;1095;50.992;6.798;2023-03-23T09:06:10;99768.03;;;14.36;75.11
2178;BME280;1095;50.992;6.798;2023-03-23T09:08:39;99766.38;;;14.28;75.20
2178;BME280;1095;50.992;6.798;2023-03-23T09:11:08;99773.28;;;14.36;75.11
2178;BME280;1095;50.992;6.798;2023-03-23T09:13:36;99770.44;;;14.31;74.55
2178;BME280;1095;50.992;6.798;2023-03-23T09:16:04;99767.81;;;14.31;74.88
2178;BME280;1095;50.992;6.798;2023-03-23T09:18:31;99760.94;;;14.36;74.96
2178;BME280;1095;50.992;6.798;2023-03-23T09:21:03;99751.41;;;14.35;74.68
2178;BME280;1095;50.992;6.798;2023-03-23T09:23:30;99754.69;;;14.44;74.52
2178;BME280;1095;50.992;6.798;2023-03-23T09:25:57;99755.53;;;14.64;74.20
2178;BME280;1095;50.992;6.798;2023-03-23T09:28:25;99765.44;;;14.62;74.63
2178;BME280;1095;50.992;6.798;2023-03-23T09:30:54;99763.59;;;14.69;73.94
2178;BME280;1095;50.992;6.798;2023-03-23T09:33:22;99773.94;;;14.64;73.53
2178;BME280;1095;50.992;6.798;2023-03-23T09:35:49;99770.09;;;14.53;72.97
2178;BME280;1095;50.992;6.798;2023-03-23T09:38:17;99779.41;;;14.63;71.93
2178;BME280;1095;50.992;6.798;2023-03-23T09:40:48;99778.81;;;14.60;71.32
2178;BME280;1095;50.992;6.798;2023-03-23T09:43:31;99780.81;;;14.65;70.93
2178;BME280;1095;50.992;6.798;2023-03-23T09:46:16;99777.34;;;14.71;70.48
2178;BME280;1095;50.992;6.798;2023-03-23T09:48:49;99774.53;;;14.79;70.51
2178;BME280;1095;50.992;6.798;2023-03-23T09:51:27;99767.63;;;14.78;70.73
2178;BME280;1095;50.992;6.798;2023-03-23T09:54:02;99781.44;;;14.60;71.05
2178;BME280;1095;50.992;6.798;2023-03-23T09:56:31;99763.41;;;14.57;71.05
2178;BME280;1095;50.992;6.798;2023-03-23T09:59:01;99781.63;;;14.46;71.85
2178;BME280;1095;50.992;6.798;2023-03-23T10:01:37;99782.63;;;14.45;72.60
2178;BME280;1095;50.992;6.798;2023-03-23T10:04:10;99778.59;;;14.49;73.22
2178;BME280;1095;50.992;6.798;2023-03-23T10:06:39;99782.22;;;14.74;73.51
2178;BME280;1095;50.992;6.798;2023-03-23T10:09:14;99764.41;;;14.83;72.33
2178;BME280;1095;50.992;6.798;2023-03-23T10:11:50;99780.59;;;14.86;72.75
2178;BME280;1095;50.992;6.798;2023-03-23T10:14:28;99778.78;;;14.80;72.49
2178;BME280;1095;50.992;6.798;2023-03-23T10:17:07;99792.38;;;14.64;73.34
2178;BME280;1095;50.992;6.798;2023-03-23T10:19:43;99799.00;;;14.40;74.26
2178;BME280;1095;50.992;6.798;2023-03-23T10:22:15;99801.22;;;14.30;74.78
2178;BME280;1095;50.992;6.798;2023-03-23T10:24:50;99796.94;;;14.22;75.59
2178;BME280;1095;50.992;6.798;2023-03-23T10:27:26;99809.31;;;14.15;76.58
2178;BME280;1095;50.992;6.798;2023-03-23T10:30:05;99811.72;;;14.17;76.79
2178;BME280;1095;50.992;6.798;2023-03-23T10:32:44;99787.03;;;14.11;77.08
2178;BME280;1095;50.992;6.798;2023-03-23T10:35:17;99789.44;;;14.19;77.80
2178;BME280;1095;50.992;6.798;2023-03-23T10:37:49;99802.41;;;14.21;77.70
2178;BME280;1095;50.992;6.798;2023-03-23T10:40:22;99806.47;;;14.30;78.21
2178;BME280;1095;50.992;6.798;2023-03-23T10:42:51;99800.81;;;14.40;78.10
2178;BME280;1095;50.992;6.798;2023-03-23T10:45:21;99813.81;;;14.41;79.62
2178;BME280;1095;50.992;6.798;2023-03-23T10:47:53;99811.31;;;14.26;81.93
2178;BME280;1095;50.992;6.798;2023-03-23T10:50:25;99826.50;;;14.24;82.41
2178;BME280;1095;50.992;6.798;2023-03-23T10:52:54;99807.47;;;14.22;81.75
2178;BME280;1095;50.992;6.798;2023-03-23T10:55:25;99811.63;;;14.58;80.91
2178;BME280;1095;50.992;6.798;2023-03-23T10:58:02;99809.16;;;14.76;80.27
2178;BME280;1095;50.992;6.798;2023-03-23T11:00:30;99817.06;;;14.83;80.01
2178;BME280;1095;50.992;6.798;2023-03-23T11:02:59;99818.09;;;14.95;79.89
2178;BME280;1095;50.992;6.798;2023-03-23T11:05:32;99801.06;;;14.98;78.82
2178;BME280;1095;50.992;6.798;2023-03-23T11:08:01;99811.38;;;15.06;78.99
2178;BME280;1095;50.992;6.798;2023-03-23T11:10:37;99808.91;;;15.24;78.42
2178;BME280;1095;50.992;6.798;2023-03-23T11:13:04;99812.97;;;15.20;78.29
2178;BME280;1095;50.992;6.798;2023-03-23T11:15:37;99799.84;;;15.07;77.48
2178;BME280;1095;50.992;6.798;2023-03-23T11:18:06;99808.75;;;14.99;78.32
2178;BME280;1095;50.992;6.798;2023-03-23T11:20:38;99798.03;;;15.01;77.51
2178;BME280;1095;50.992;6.798;2023-03-23T11:23:13;99788.09;;;15.03;77.77
2178;BME280;1095;50.992;6.798;2023-03-23T11:25:54;99789.91;;;14.96;78.04
2178;BME280;1095;50.992;6.798;2023-03-23T11:28:26;99788.28;;;15.08;78.17
2178;BME280;1095;50.992;6.798;2023-03-23T11:30:57;99788.09;;;15.03;77.37
2178;BME280;1095;50.992;6.798;2023-03-23T11:33:25;99789.50;;;14.92;77.62
2178;BME280;1095;50.992;6.798;2023-03-23T11:35:54;99781.00;;;14.90;78.27
2178;BME280;1095;50.992;6.798;2023-03-23T11:38:24;99788.72;;;14.78;78.41
2178;BME280;1095;50.992;6.798;2023-03-23T11:40:54;99790.94;;;14.75;78.83
2178;BME280;1095;50.992;6.798;2023-03-23T11:43:25;99809.38;;;14.62;80.16
2178;BME280;1095;50.992;6.798;2023-03-23T11:46:01;99810.59;;;14.46;81.33
2178;BME280;1095;50.992;6.798;2023-03-23T11:48:35;99819.44;;;14.32;82.97
2178;BME280;1095;50.992;6.798;2023-03-23T11:51:10;99810.31;;;14.27;83.30
2178;BME280;1095;50.992;6.798;2023-03-23T11:53:45;99808.31;;;14.36;83.91
2178;BME280;1095;50.992;6.798;2023-03-23T11:56:24;99809.38;;;15.01;82.04
2178;BME280;1095;50.992;6.798;2023-03-23T11:58:53;99805.16;;;15.65;80.27
2178;BME280;1095;50.992;6.798;2023-03-23T12:01:28;99804.13;;;16.10;77.81
2178;BME280;1095;50.992;6.798;2023-03-23T12:04:08;99798.00;;;16.16;76.77
2178;BME280;1095;50.992;6.798;2023-03-23T12:06:47;99796.41;;;16.09;77.37
2178;BME280;1095;50.992;6.798;2023-03-23T12:09:34;99792.66;;;16.30;76.06
2178;BME280;1095;50.992;6.798;2023-03-23T12:12:14;99805.53;;;16.76;75.48
2178;BME280;1095;50.992;6.798;2023-03-23T12:15:00;99804.13;;;16.73;74.52
2178;BME280;1095;50.992;6.798;2023-03-23T12:17:39;99793.84;;;16.58;74.10
2178;BME280;1095;50.992;6.798;2023-03-23T12:20:29;99771.53;;;16.54;73.41
2178;BME280;1095;50.992;6.798;2023-03-23T12:23:21;99776.00;;;17.04;73.08
2178;BME280;1095;50.992;6.798;2023-03-23T12:26:21;99778.56;;;16.67;71.40
2178;BME280;1095;50.992;6.798;2023-03-23T12:32:29;99771.69;;;16.59;73.38
2178;BME280;1095;50.992;6.798;2023-03-23T12:35:14;99777.66;;;16.23;73.35
2178;BME280;1095;50.992;6.798;2023-03-23T12:38:10;99773.81;;;16.19;72.77
2178;BME280;1095;50.992;6.798;2023-03-23T12:40:47;99774.34;;;16.35;73.37
2178;BME280;1095;50.992;6.798;2023-03-23T12:43:20;99767.88;;;16.55;73.24
2178;BME280;1095;50.992;6.798;2023-03-23T12:46:06;99773.66;;;16.14;73.04
2178;BME280;1095;50.992;6.798;2023-03-23T12:48:40;99771.00;;;16.14;72.44
2178;BME280;1095;50.992;6.798;2023-03-23T12:51:17;99784.72;;;15.98;72.83
2178;BME280;1095;50.992;6.798;2023-03-23T12:53:52;99778.22;;;16.01;72.78
2178;BME280;1095;50.992;6.798;2023-03-23T12:56:26;99786.66;;;16.09;73.23
2178;BME280;1095;50.992;6.798;2023-03-23T12:58:56;99793.53;;;16.17;73.33
2178;BME280;1095;50.992;6.798;2023-03-23T13:01:25;99792.09;;;16.21;72.73
2178;BME280;1095;50.992;6.798;2023-03-23T13:04:03;99782.91;;;16.30;72.27
2178;BME280;1095;50.992;6.798;2023-03-23T13:06:35;99795.28;;;16.30;71.88
2178;BME280;1095;50.992;6.798;2023-03-23T13:09:07;99793.09;;;16.20;72.26
2178;BME280;1095;50.992;6.798;2023-03-23T13:11:39;99805.41;;;16.01;72.33
2178;BME280;1095;50.992;6.798;2023-03-23T13:14:18;99790.09;;;15.78;72.95
2178;BME280;1095;50.992;6.798;2023-03-23T13:16:58;99789.59;;;15.56;74.29
2178;BME280;1095;50.992;6.798;2023-03-23T13:19:34;99797.72;;;15.42;75.30
2178;BME280;1095;50.992;6.798;2023-03-23T13:22:11;99790.03;;;15.34;75.48
2178;BME280;1095;50.992;6.798;2023-03-23T13:24:44;99792.22;;;15.50;75.27
2178;BME280;1095;50.992;6.798;2023-03-23T13:27:12;99795.47;;;15.52;76.73
2178;BME280;1095;50.992;6.798;2023-03-23T13:29:44;99784.50;;;15.55;76.40
2178;BME280;1095;50.992;6.798;2023-03-23T13:32:14;99786.53;;;15.59;75.70
2178;BME280;1095;50.992;6.798;2023-03-23T13:34:43;99795.47;;;15.45;74.85
2178;BME280;1095;50.992;6.798;2023-03-23T13:37:20;99805.59;;;15.48;74.51
2178;BME280;1095;50.992;6.798;2023-03-23T13:39:50;99812.34;;;15.18;75.22
2178;BME280;1095;50.992;6.798;2023-03-23T13:42:20;99828.63;;;14.88;77.07
2178;BME280;1095;50.992;6.798;2023-03-23T13:44:57;99851.56;;;14.07;82.69
2178;BME280;1095;50.992;6.798;2023-03-23T13:47:37;99844.53;;;13.67;86.39
2178;BME280;1095;50.992;6.798;2023-03-23T13:50:09;99847.34;;;13.65;86.64
2178;BME280;1095;50.992;6.798;2023-03-23T13:52:38;99830.69;;;13.99;86.02
2178;BME280;1095;50.992;6.798;2023-03-23T13:55:19;99849.88;;;14.47;85.38
2178;BME280;1095;50.992;6.798;2023-03-23T13:57:50;99846.66;;;14.78;83.09
2178;BME280;1095;50.992;6.798;2023-03-23T14:00:43;99838.16;;;14.63;82.49
2178;BME280;1095;50.992;6.798;2023-03-23T14:03:15;99840.97;;;15.01;81.65
2178;BME280;1095;50.992;6.798;2023-03-23T14:05:45;99833.25;;;15.19;81.20
2178;BME280;1095;50.992;6.798;2023-03-23T14:08:21;99836.66;;;15.46;80.36
2178;BME280;1095;50.992;6.798;2023-03-23T14:10:51;99838.28;;;15.41;79.70
2178;BME280;1095;50.992;6.798;2023-03-23T14:13:24;99828.94;;;15.51;78.65
2178;BME280;1095;50.992;6.798;2023-03-23T14:15:57;99816.94;;;15.62;78.24
2178;BME280;1095;50.992;6.798;2023-03-23T14:18:30;99822.31;;;15.87;78.22
2178;BME280;1095;50.992;6.798;2023-03-23T14:20:59;99814.00;;;15.90;76.89
2178;BME280;1095;50.992;6.798;2023-03-23T14:23:27;99805.28;;;15.83;76.91
2178;BME280;1095;50.992;6.798;2023-03-23T14:25:59;99798.81;;;15.79;76.96
2178;BME280;1095;50.992;6.798;2023-03-23T14:28:39;99801.28;;;15.74;76.94
2178;BME280;1095;50.992;6.798;2023-03-23T14:31:15;99812.84;;;15.73;77.43